Time;durP1;ratioP1;P1;durP2;ratioP2;P2;SDS_P1;SDS_P2;PMS_P1;PMS_P2;Temp;Humidity;BMP_temperature;BMP_pressure;BME280_temperature;BME280_humidity;BME280_pressure;Samples;Min_cycle;Max_cycle;Signal;HPM_P1;HPM_P2
2023/12/05 00:01:32;;;;;;;60.30;22.30;;;;;;;-7.84;100.00;99277.85;104053;1283;60545;-32
2023/12/05 00:03:58;;;;;;;;;;;;;;;-7.86;100.00;99272.59;104066;1280;60544;-30
2023/12/05 00:06:24;;;;;;;62.40;21.70;;;;;;;-7.88;100.00;99273.22;103992;1280;60596;-30
2023/12/05 00:08:50;;;;;;;57.40;22.10;;;;;;;-7.89;100.00;99269.96;103954;1280;60580;-29
2023/12/05 00:11:16;;;;;;;;;;;;;;;-7.86;100.00;99267.02;103951;1280;60439;-29
2023/12/05 00:13:42;;;;;;;65.30;22.90;;;;;;;-7.90;100.00;99266.39;104241;1280;60641;-32
2023/12/05 00:16:08;;;;;;;65.60;24.90;;;;;;;-7.92;100.00;99264.75;104067;1280;68963;-30
2023/12/05 00:18:36;;;;;;;75.50;25.30;;;;;;;-7.95;100.00;99264.58;103990;1280;60569;-31
2023/12/05 00:21:02;;;;;;;71.30;24.50;;;;;;;-7.94;100.00;99263.64;103995;1283;60569;-33
2023/12/05 00:23:28;;;;;;;77.10;27.60;;;;;;;-7.90;100.00;99261.36;103968;1279;60485;-28
2023/12/05 00:25:54;;;;;;;75.00;26.50;;;;;;;-7.91;100.00;99256.67;103916;1280;60584;-32
2023/12/05 00:28:20;;;;;;;130.80;48.90;;;;;;;-7.93;100.00;99255.92;104041;1280;60432;-32
2023/12/05 00:30:46;;;;;;;102.00;30.90;;;;;;;-7.96;100.00;99256.44;104018;1280;60535;-30
2023/12/05 00:33:11;;;;;;;110.00;37.50;;;;;;;-7.98;100.00;99261.63;103936;1280;60589;-29
2023/12/05 00:35:38;;;;;;;86.10;28.50;;;;;;;-8.02;100.00;99259.89;104001;1279;60541;-31
2023/12/05 00:38:03;;;;;;;73.40;25.90;;;;;;;-8.01;100.00;99259.48;103920;1280;60557;-31
2023/12/05 00:40:29;;;;;;;;;;;;;;;-7.98;100.00;99256.92;104055;1280;60440;-31
2023/12/05 00:42:56;;;;;;;87.80;26.30;;;;;;;-7.97;100.00;99256.17;104075;1279;60479;-30
2023/12/05 00:45:22;;;;;;;76.40;24.80;;;;;;;-7.97;100.00;99255.83;104026;1280;60546;-28
2023/12/05 00:47:49;;;;;;;75.20;26.50;;;;;;;-7.98;100.00;99249.61;103987;1283;60507;-31
2023/12/05 00:50:15;;;;;;;75.30;25.20;;;;;;;-8.01;100.00;99248.91;104094;1279;60571;-34
2023/12/05 00:52:41;;;;;;;72.90;25.00;;;;;;;-8.04;100.00;99249.39;103924;1280;60529;-33
2023/12/05 00:55:07;;;;;;;;;;;;;;;-8.02;100.00;99248.27;104053;1279;60513;-28
2023/12/05 00:57:32;;;;;;;77.70;25.10;;;;;;;-8.04;100.00;99248.17;104161;1280;60559;-29
2023/12/05 00:59:58;;;;;;;;;;;;;;;-8.09;100.00;99251.76;103941;1280;72428;-31
2023/12/05 01:02:24;;;;;;;73.00;24.80;;;;;;;-8.14;100.00;99253.79;103936;1280;60549;-33
2023/12/05 01:04:50;;;;;;;64.40;23.50;;;;;;;-8.18;100.00;99254.17;103753;1280;60545;-34
2023/12/05 01:07:16;;;;;;;;;;;;;;;-8.23;100.00;99250.92;104111;1280;60423;-35
2023/12/05 01:09:42;;;;;;;65.20;22.90;;;;;;;-8.25;100.00;99247.05;103963;1279;60580;-29
2023/12/05 01:12:10;;;;;;;78.20;26.40;;;;;;;-8.24;100.00;99251.19;104000;1280;60504;-32
2023/12/05 01:14:36;;;;;;;71.70;26.40;;;;;;;-8.19;100.00;99254.05;104010;1280;60460;-29
2023/12/05 01:17:02;;;;;;;104.40;38.30;;;;;;;-8.15;100.00;99251.91;104081;1283;60560;-29
2023/12/05 01:19:28;;;;;;;73.80;28.00;;;;;;;-8.13;100.00;99249.89;103946;1284;60542;-32
2023/12/05 01:21:54;;;;;;;;;;;;;;;-8.13;100.00;99250.58;104086;1280;60511;-33
2023/12/05 01:24:20;;;;;;;73.40;25.00;;;;;;;-8.17;100.00;99245.27;104093;1280;60545;-32
2023/12/05 01:26:45;;;;;;;69.00;25.30;;;;;;;-8.22;100.00;99237.02;104129;1280;60488;-32
2023/12/05 01:29:11;;;;;;;64.50;24.10;;;;;;;-8.27;100.00;99232.08;103919;1279;60631;-30
2023/12/05 01:31:37;;;;;;;69.40;23.30;;;;;;;-8.31;100.00;99230.73;103937;1280;60577;-32
2023/12/05 01:34:03;;;;;;;69.90;23.10;;;;;;;-8.36;100.00;99231.67;104051;1280;60561;-30
2023/12/05 01:36:30;;;;;;;61.10;23.50;;;;;;;-8.38;100.00;99231.31;104017;1280;74128;-31
2023/12/05 01:38:56;;;;;;;74.30;23.00;;;;;;;-8.41;100.00;99232.50;103982;1279;69733;-33
2023/12/05 01:41:22;;;;;;;74.40;25.80;;;;;;;-8.45;100.00;99228.21;104096;1280;60491;-36
2023/12/05 01:43:49;;;;;;;67.50;23.00;;;;;;;-8.53;100.00;99227.39;103838;1285;60565;-31
2023/12/05 01:46:15;;;;;;;67.20;23.20;;;;;;;-8.60;100.00;99230.21;103996;1283;62102;-29
2023/12/05 01:48:41;;;;;;;63.60;23.90;;;;;;;-8.66;100.00;99232.08;103823;1285;60701;-30
2023/12/05 01:51:08;;;;;;;203.10;78.70;;;;;;;-8.74;100.00;99230.55;104063;1283;60904;-32
2023/12/05 02:35:05;;;;;;;298.80;118.10;;;;;;;-8.86;100.00;99192.84;103407;1282;613151;-31
2023/12/05 02:37:49;;;;;;;292.20;118.80;;;;;;;-8.65;100.00;99187.95;103570;1282;147613;-32
2023/12/05 02:40:25;;;;;;;218.30;93.10;;;;;;;-8.65;100.00;99186.20;103630;1282;59217;-33
2023/12/05 02:42:51;;;;;;;132.10;52.10;;;;;;;-8.63;100.00;99186.79;103664;1284;59276;-33
2023/12/05 02:45:18;;;;;;;126.90;49.70;;;;;;;-8.58;100.00;99186.73;103643;1281;59369;-30
2023/12/05 02:47:50;;;;;;;133.70;61.80;;;;;;;-8.48;100.00;99188.76;103586;1282;68699;-32
2023/12/05 02:50:19;;;;;;;133.50;57.40;;;;;;;-8.38;100.00;99184.58;103657;1281;72332;-30
2023/12/05 02:52:45;;;;;;;428.80;189.90;;;;;;;-8.31;100.00;99182.44;103613;1288;59506;-30
2023/12/05 02:55:11;;;;;;;;;;;;;;;-8.24;100.00;99181.73;103714;1287;59315;-31
2023/12/05 02:57:37;;;;;;;65.10;22.10;;;;;;;-8.16;100.00;99185.45;103661;1282;59285;-30
2023/12/05 03:00:04;;;;;;;57.50;20.60;;;;;;;-8.09;100.00;99182.80;103600;1282;59746;-32
2023/12/05 03:02:30;;;;;;;59.00;21.10;;;;;;;-8.04;100.00;99179.54;103663;1282;59725;-32
2023/12/05 03:04:56;;;;;;;57.30;19.90;;;;;;;-8.02;100.00;99175.45;103786;1282;59737;-29
2023/12/05 03:07:21;;;;;;;68.80;24.30;;;;;;;-8.03;100.00;99173.59;103718;1286;60230;-33
2023/12/05 03:09:47;;;;;;;64.30;22.10;;;;;;;-8.04;100.00;99169.85;103545;1288;59771;-32
2023/12/05 03:12:13;;;;;;;59.10;21.70;;;;;;;-8.05;100.00;99168.65;103800;1282;59534;-31
2023/12/05 03:14:39;;;;;;;58.50;23.20;;;;;;;-8.03;100.00;99169.77;103616;1286;59710;-32
2023/12/05 03:17:05;;;;;;;;;;;;;;;-7.97;100.00;99169.14;103704;1283;59587;-32
2023/12/05 03:19:31;;;;;;;53.60;19.80;;;;;;;-7.94;100.00;99165.28;103658;1282;59766;-31
2023/12/05 03:21:57;;;;;;;58.20;20.00;;;;;;;-7.93;100.00;99166.10;103667;1282;59749;-29
2023/12/05 03:24:23;;;;;;;59.30;20.70;;;;;;;-7.89;100.00;99167.13;103619;1282;59593;-30
2023/12/05 03:26:48;;;;;;;58.30;20.10;;;;;;;-7.86;100.00;99165.21;103632;1282;59659;-31
2023/12/05 03:29:14;;;;;;;61.60;22.40;;;;;;;-7.89;100.00;99166.40;103630;1282;59705;-30
2023/12/05 03:31:40;;;;;;;58.60;21.00;;;;;;;-7.93;100.00;99163.49;103593;1283;59755;-30
2023/12/05 03:34:06;;;;;;;;;;;;;;;-7.95;100.00;99172.64;103694;1286;59787;-30
2023/12/05 03:36:32;;;;;;;172.20;51.80;;;;;;;-7.86;100.00;99170.08;103602;1283;59848;-33
2023/12/05 03:38:58;;;;;;;103.00;47.80;;;;;;;-7.88;100.00;99163.90;103667;1283;59678;-29
2023/12/05 03:41:25;;;;;;;110.30;51.00;;;;;;;-7.89;100.00;99169.17;103673;1282;59779;-31
2023/12/05 03:43:50;;;;;;;59.80;23.10;;;;;;;-7.95;100.00;99169.38;103692;1282;59676;-29
2023/12/05 03:46:16;;;;;;;64.20;22.90;;;;;;;-8.00;100.00;99169.92;103604;1282;60303;-32
2023/12/05 03:48:42;;;;;;;101.10;40.30;;;;;;;-8.02;100.00;99169.56;103587;1282;59702;-31
2023/12/05 03:51:08;;;;;;;99.40;33.40;;;;;;;-8.06;100.00;99161.97;103614;1282;59774;-34
2023/12/05 03:53:34;;;;;;;72.10;28.50;;;;;;;-8.08;100.00;99161.71;103603;1287;73482;-28
2023/12/05 03:55:59;;;;;;;;;;;;;;;-8.03;100.00;99157.27;103733;1283;59654;-29
2023/12/05 03:58:25;;;;;;;97.80;38.70;;;;;;;-7.97;100.00;99154.35;103639;1283;59711;-31
2023/12/05 04:00:51;;;;;;;242.90;73.60;;;;;;;-7.91;100.00;99152.59;103672;1282;59679;-33
2023/12/05 04:03:17;;;;;;;280.00;73.60;;;;;;;-7.80;100.00;99152.18;103659;1282;59768;-33
2023/12/05 04:05:43;;;;;;;62.40;22.90;;;;;;;-7.69;100.00;99138.65;103718;1282;59749;-33
2023/12/05 04:08:09;;;;;;;118.80;43.00;;;;;;;-7.61;100.00;99147.62;103669;1282;59784;-32
2023/12/05 04:10:35;;;;;;;222.50;94.60;;;;;;;-7.47;100.00;99154.78;103678;1282;59763;-32
2023/12/05 04:13:01;;;;;;;254.80;114.70;;;;;;;-7.26;100.00;99151.31;103605;1287;59653;-32
2023/12/05 04:15:26;;;;;;;132.80;52.70;;;;;;;-7.18;100.00;99157.11;103661;1282;59765;-33
2023/12/05 04:17:52;;;;;;;106.00;43.70;;;;;;;-7.10;100.00;99148.80;103697;1282;59662;-32
2023/12/05 04:20:18;;;;;;;119.10;46.80;;;;;;;-6.99;100.00;99141.34;103657;1282;59768;-31
2023/12/05 04:22:44;;;;;;;125.50;51.70;;;;;;;-6.88;100.00;99148.34;103700;1282;59681;-30
2023/12/05 04:25:10;;;;;;;269.70;106.00;;;;;;;-6.78;100.00;99144.06;103629;1287;59615;-31
2023/12/05 04:27:36;;;;;;;541.70;203.00;;;;;;;-6.70;100.00;99142.56;103571;1283;59769;-32
2023/12/05 04:30:03;;;;;;;581.20;208.90;;;;;;;-6.61;100.00;99142.15;103699;1283;59741;-32
2023/12/05 04:32:28;;;;;;;891.30;192.10;;;;;;;-6.48;100.00;99144.13;103491;1282;59709;-33
2023/12/05 04:34:54;;;;;;;1724.30;325.20;;;;;;;-6.37;100.00;99142.08;103658;1282;59765;-33
2023/12/05 04:37:20;;;;;;;500.00;93.30;;;;;;;-6.25;100.00;99141.29;103638;1282;59775;-30
2023/12/05 04:39:46;;;;;;;153.30;36.30;;;;;;;-6.15;100.00;99137.89;103621;1282;59778;-32
2023/12/05 04:42:12;;;;;;;54.30;21.90;;;;;;;-6.06;100.00;99136.27;103612;1286;59781;-31
2023/12/05 04:44:37;;;;;;;78.80;25.30;;;;;;;-5.90;100.00;99135.58;103657;1282;59782;-31
2023/12/05 04:47:03;;;;;;;379.50;94.10;;;;;;;-5.75;100.00;99138.91;103626;1282;73115;-32
2023/12/05 04:49:30;;;;;;;471.30;131.00;;;;;;;-5.58;100.00;99137.14;103679;1282;59638;-31
2023/12/05 04:51:56;;;;;;;250.10;72.60;;;;;;;-5.51;100.00;99131.23;103614;1282;59750;-31
2023/12/05 04:54:22;;;;;;;101.40;34.90;;;;;;;-5.46;100.00;99134.91;103666;1282;59807;-32
2023/12/05 04:56:48;;;;;;;66.40;25.20;;;;;;;-5.37;100.00;99135.74;103667;1286;59785;-31
2023/12/05 04:59:14;;;;;;;64.50;21.50;;;;;;;-5.30;100.00;99138.91;103697;1282;59787;-33
2023/12/05 05:01:39;;;;;;;62.60;22.00;;;;;;;-5.27;100.00;99134.03;103668;1283;59888;-31
2023/12/05 05:04:05;;;;;;;67.70;22.50;;;;;;;-5.20;100.00;99129.34;103631;1282;60172;-33
2023/12/05 05:06:31;;;;;;;64.60;22.40;;;;;;;-5.15;100.00;99124.64;103665;1282;59723;-33
2023/12/05 05:08:57;;;;;;;71.00;23.20;;;;;;;-5.07;100.00;99119.41;103562;1282;59736;-31
2023/12/05 05:11:23;;;;;;;71.10;23.10;;;;;;;-5.03;100.00;99122.41;103633;1282;59720;-29
2023/12/05 05:13:49;;;;;;;55.80;21.70;;;;;;;-4.99;100.00;99115.54;103754;1287;59742;-31
2023/12/05 05:16:14;;;;;;;73.30;24.30;;;;;;;-4.91;100.00;99116.91;103599;1282;70004;-31
2023/12/05 05:18:40;;;;;;;78.60;30.20;;;;;;;-4.85;100.00;99116.30;103572;1287;60077;-31
2023/12/05 05:21:06;;;;;;;72.70;28.00;;;;;;;-4.83;100.00;99123.30;103613;1282;60296;-29
2023/12/05 05:23:32;;;;;;;;;;;;;;;-4.77;100.00;99120.65;103714;1283;59694;-31
2023/12/05 05:25:58;;;;;;;72.50;27.60;;;;;;;-4.74;100.00;99123.74;103683;1282;59672;-31
2023/12/05 05:28:24;;;;;;;63.90;23.40;;;;;;;-4.70;100.00;99120.63;103719;1282;59593;-31
2023/12/05 05:30:54;;;;;;;65.40;23.90;;;;;;;-4.69;100.00;99117.10;103676;1282;59742;-33
2023/12/05 05:33:21;;;;;;;67.50;24.00;;;;;;;-4.62;100.00;99115.25;103597;1282;73016;-32
2023/12/05 05:35:47;;;;;;;58.90;22.40;;;;;;;-4.60;100.00;99115.05;103625;1285;59775;-32
2023/12/05 05:38:13;;;;;;;64.20;23.10;;;;;;;-4.61;100.00;99114.98;103656;1284;59761;-30
2023/12/05 05:40:39;;;;;;;61.90;22.00;;;;;;;-4.60;100.00;99114.89;103638;1283;59778;-31
2023/12/05 05:43:05;;;;;;;56.80;21.20;;;;;;;-4.52;100.00;99116.98;103635;1282;59795;-33
2023/12/05 05:45:31;;;;;;;62.60;25.00;;;;;;;-4.48;100.00;99112.32;103660;1282;59734;-31
2023/12/05 05:47:57;;;;;;;59.70;23.20;;;;;;;-4.43;100.00;99107.94;103650;1282;59758;-30
2023/12/05 05:50:22;;;;;;;62.60;21.80;;;;;;;-4.41;100.00;99106.05;103553;1285;59731;-31
2023/12/05 05:52:48;;;;;;;64.80;23.50;;;;;;;-4.39;100.00;99103.15;103616;1284;59759;-33
2023/12/05 05:55:14;;;;;;;;;;;;;;;-4.38;100.00;99105.52;103708;1282;59778;-33
2023/12/05 05:57:40;;;;;;;61.80;21.70;;;;;;;-4.36;100.00;99105.83;103687;1282;59689;-34
2023/12/05 06:00:08;;;;;;;50.40;19.30;;;;;;;-4.33;100.00;99101.27;103667;1283;59653;-32
2023/12/05 06:02:34;;;;;;;57.20;20.70;;;;;;;-4.28;100.00;99098.52;103725;1285;59730;-32
2023/12/05 06:05:00;;;;;;;57.50;21.40;;;;;;;-4.24;100.00;99101.52;103665;1282;59586;-31
2023/12/05 06:07:25;;;;;;;60.50;23.40;;;;;;;-4.18;100.00;99104.59;103633;1283;59836;-32
2023/12/05 06:09:51;;;;;;;78.00;26.80;;;;;;;-4.14;100.00;99103.77;103630;1282;59884;-33
2023/12/05 06:12:17;;;;;;;65.20;22.40;;;;;;;-4.13;100.00;99101.59;103622;1282;59730;-32
2023/12/05 06:14:43;;;;;;;61.30;21.90;;;;;;;-4.11;100.00;99105.50;103614;1288;59687;-32
2023/12/05 06:17:09;;;;;;;62.00;23.50;;;;;;;-4.10;100.00;99105.08;103663;1283;59737;-34
2023/12/05 06:19:35;;;;;;;65.00;23.30;;;;;;;-4.12;100.00;99103.80;103678;1282;59720;-33
2023/12/05 06:22:01;;;;;;;66.40;24.10;;;;;;;-4.14;100.00;99107.80;103636;1282;59697;-31
2023/12/05 06:24:27;;;;;;;60.30;21.40;;;;;;;-4.14;100.00;99109.21;103667;1282;59865;-30
2023/12/05 06:26:53;;;;;;;75.40;27.50;;;;;;;-4.09;100.00;99120.70;103687;1282;59813;-32
2023/12/05 06:29:19;;;;;;;72.90;27.20;;;;;;;-3.99;100.00;99130.53;103673;1287;59749;-32
2023/12/05 06:31:44;;;;;;;60.40;23.80;;;;;;;-3.93;100.00;99128.16;103596;1285;59758;-31
2023/12/05 06:34:10;;;;;;;95.30;32.20;;;;;;;-3.90;100.00;99124.59;103714;1282;59790;-30
2023/12/05 06:36:36;;;;;;;102.20;41.40;;;;;;;-3.86;100.00;99116.98;103692;1282;59688;-34
2023/12/05 06:39:02;;;;;;;85.10;32.50;;;;;;;-3.88;100.00;99113.23;103655;1282;60485;-33
2023/12/05 06:41:28;;;;;;;101.90;31.50;;;;;;;-3.84;100.00;99112.76;103619;1282;60569;-29
2023/12/05 06:43:54;;;;;;;85.20;28.10;;;;;;;-3.75;100.00;99116.80;103639;1282;60559;-29
2023/12/05 06:46:20;;;;;;;75.20;25.20;;;;;;;-3.67;100.00;99118.92;103662;1282;60488;-33
2023/12/05 06:48:48;;;;;;;80.40;29.70;;;;;;;-3.59;100.00;99120.03;103618;1282;60498;-34
2023/12/05 06:51:21;;;;;;;60.30;21.80;;;;;;;-3.51;100.00;99121.70;103737;1283;60562;-34
2023/12/05 06:53:47;;;;;;;46.20;17.40;;;;;;;-3.40;100.00;99125.94;103738;1282;69667;-32
2023/12/05 06:56:13;;;;;;;;;;;;;;;-3.35;100.00;99122.95;103667;1282;60469;-31
2023/12/05 06:58:39;;;;;;;37.80;15.40;;;;;;;-3.33;100.00;99127.32;103655;1283;60559;-32
2023/12/05 07:01:06;;;;;;;61.60;23.40;;;;;;;-3.30;100.00;99134.30;103518;1285;60562;-33
2023/12/05 07:03:32;;;;;;;147.40;55.50;;;;;;;-3.22;100.00;99134.81;103711;1282;60458;-30
2023/12/05 07:05:58;;;;;;;148.70;62.90;;;;;;;-3.22;100.00;99137.04;103656;1282;60693;-32
2023/12/05 07:08:24;;;;;;;69.30;29.40;;;;;;;-3.29;100.00;99128.79;103604;1282;60549;-31
2023/12/05 07:10:50;;;;;;;111.50;45.20;;;;;;;-3.34;100.00;99133.21;103634;1283;60584;-32
2023/12/05 07:13:16;;;;;;;58.50;23.70;;;;;;;-3.38;100.00;99134.72;103551;1285;60563;-31
2023/12/05 07:15:42;;;;;;;66.60;25.00;;;;;;;-3.47;100.00;99135.41;103610;1287;60569;-30
2023/12/05 07:18:08;;;;;;;64.80;23.80;;;;;;;-3.53;100.00;99132.74;103701;1282;60497;-29
2023/12/05 07:20:34;;;;;;;82.30;28.90;;;;;;;-3.57;100.00;99132.30;103606;1282;60556;-34
2023/12/05 07:23:00;;;;;;;83.30;28.50;;;;;;;-3.63;100.00;99121.39;103637;1282;60549;-32
2023/12/05 07:25:26;;;;;;;96.20;28.80;;;;;;;-3.62;100.00;99123.58;103607;1282;60467;-30
2023/12/05 07:27:51;;;;;;;83.70;26.90;;;;;;;-3.58;100.00;99123.83;103626;1288;60633;-31
2023/12/05 07:30:17;;;;;;;74.20;25.00;;;;;;;-3.52;100.00;99123.91;103603;1282;60449;-31
2023/12/05 07:32:43;;;;;;;71.30;24.40;;;;;;;-3.45;100.00;99124.63;103621;1282;60511;-32
2023/12/05 07:35:09;;;;;;;83.00;28.70;;;;;;;-3.39;100.00;99120.29;103705;1282;60572;-31
2023/12/05 07:37:35;;;;;;;96.30;33.20;;;;;;;-3.39;100.00;99114.89;103428;1283;60555;-33
2023/12/05 07:40:01;;;;;;;68.10;23.60;;;;;;;-3.40;100.00;99113.14;103582;1287;60597;-34
2023/12/05 07:42:27;;;;;;;74.10;25.00;;;;;;;-3.37;100.00;99114.89;103653;1285;60575;-33
2023/12/05 07:44:53;;;;;;;92.30;26.40;;;;;;;-3.27;100.00;99114.51;103687;1282;60354;-31
2023/12/05 07:47:18;;;;;;;86.30;28.40;;;;;;;-3.20;100.00;99110.61;103601;1287;61219;-30
2023/12/05 07:49:45;;;;;;;88.50;28.80;;;;;;;-3.15;100.00;99105.48;103650;1282;60543;-31
2023/12/05 07:52:10;;;;;;;;;;;;;;;-3.12;100.00;99105.08;103695;1282;60457;-33
2023/12/05 07:54:36;;;;;;;99.40;30.50;;;;;;;-3.09;100.00;99105.61;103780;1282;60559;-34
2023/12/05 07:57:03;;;;;;;157.60;43.00;;;;;;;-3.08;99.88;99112.19;103770;1283;60446;-32
2023/12/05 07:59:29;;;;;;;131.40;35.90;;;;;;;-3.12;99.64;99114.27;103622;1283;73542;-30
2023/12/05 08:01:55;;;;;;;123.60;37.10;;;;;;;-3.13;99.84;99120.06;103649;1283;60566;-31
2023/12/05 08:04:21;;;;;;;119.80;36.40;;;;;;;-3.11;99.92;99122.54;103641;1282;60590;-33
2023/12/05 08:06:48;;;;;;;92.70;31.00;;;;;;;-3.11;99.84;99122.56;103625;1282;60975;-32
2023/12/05 08:09:14;;;;;;;219.30;93.60;;;;;;;-3.12;99.55;99117.71;103641;1282;60459;-32
2023/12/05 08:11:40;;;;;;;99.20;42.90;;;;;;;-3.21;98.81;99120.57;103601;1282;60586;-32
2023/12/05 08:14:06;;;;;;;242.50;73.20;;;;;;;-3.29;98.36;99117.27;103660;1282;60575;-30
2023/12/05 08:16:32;;;;;;;196.30;53.10;;;;;;;-3.36;98.45;99122.49;103708;1287;60487;-30
2023/12/05 08:18:58;;;;;;;127.60;32.80;;;;;;;-3.33;98.88;99126.81;103617;1288;60514;-31
2023/12/05 08:21:24;;;;;;;107.50;29.50;;;;;;;-3.30;98.70;99122.76;103397;1282;60482;-30
2023/12/05 08:23:49;;;;;;;95.30;36.50;;;;;;;-3.30;98.48;99122.20;103703;1282;60408;-34
2023/12/05 08:26:15;;;;;;;87.70;32.30;;;;;;;-3.31;98.35;99125.09;103635;1283;60555;-32
2023/12/05 08:28:41;;;;;;;102.80;44.40;;;;;;;-3.29;98.20;99125.84;103753;1283;60489;-33
2023/12/05 08:31:07;;;;;;;114.10;44.80;;;;;;;-3.23;98.14;99128.19;103585;1282;72368;-29
2023/12/05 08:33:33;;;;;;;94.30;35.30;;;;;;;-3.18;97.99;99126.59;103624;1282;60517;-32
2023/12/05 08:35:59;;;;;;;93.10;41.70;;;;;;;-3.13;98.30;99129.02;103622;1286;60576;-30
2023/12/05 08:38:25;;;;;;;73.50;28.90;;;;;;;-3.08;98.29;99129.14;103647;1282;60596;-32
2023/12/05 08:40:51;;;;;;;104.10;33.10;;;;;;;-2.99;98.80;99125.69;103715;1287;60559;-33
2023/12/05 08:43:16;;;;;;;140.30;41.10;;;;;;;-2.88;99.00;99127.64;103692;1282;60441;-31
2023/12/05 08:45:42;;;;;;;152.40;37.40;;;;;;;-2.79;99.04;99125.30;103648;1288;60511;-32
2023/12/05 08:48:08;;;;;;;102.90;29.20;;;;;;;-2.63;99.31;99127.23;103581;1287;60420;-31
2023/12/05 08:50:34;;;;;;;102.90;28.20;;;;;;;-2.50;99.19;99126.23;103667;1282;60559;-32
2023/12/05 08:53:00;;;;;;;;;;;;;;;-2.41;98.79;99129.92;103650;1282;60580;-31
2023/12/05 08:55:26;;;;;;;93.60;27.30;;;;;;;-2.33;98.94;99132.09;103680;1283;67088;-33
2023/12/05 08:57:52;;;;;;;112.70;33.20;;;;;;;-2.22;98.75;99131.73;103593;1287;60575;-32
2023/12/05 09:00:18;;;;;;;;;;;;;;;-2.11;98.50;99132.98;103640;1285;60520;-31
2023/12/05 09:02:44;;;;;;;115.80;36.80;;;;;;;-2.06;98.03;99130.10;103633;1282;60481;-30
2023/12/05 09:05:10;;;;;;;93.00;30.50;;;;;;;-1.99;97.71;99127.27;103636;1282;60552;-30
2023/12/05 09:07:37;;;;;;;92.00;32.00;;;;;;;-1.91;97.70;99131.55;103661;1282;60489;-32
2023/12/05 09:10:03;;;;;;;83.00;31.90;;;;;;;-1.85;97.38;99131.79;103592;1283;60467;-32
2023/12/05 09:12:46;;;;;;;79.70;28.80;;;;;;;-1.75;97.22;99129.37;103543;1282;72623;-32
2023/12/05 09:15:11;;;;;;;73.00;27.10;;;;;;;-1.71;96.74;99122.48;103578;1282;60620;-31
2023/12/05 09:17:37;;;;;;;97.80;34.40;;;;;;;-1.59;96.95;99118.71;103575;1282;60568;-30
2023/12/05 09:20:04;;;;;;;62.80;24.20;;;;;;;-1.48;96.69;99114.50;103647;1283;60514;-33
2023/12/05 09:22:30;;;;;;;118.90;54.40;;;;;;;-1.37;96.43;99112.67;103690;1282;61207;-31
2023/12/05 09:24:55;;;;;;;103.80;40.00;;;;;;;-1.22;96.64;99113.59;103674;1282;60495;-32
2023/12/05 09:27:21;;;;;;;177.60;76.10;;;;;;;-1.10;96.76;99106.57;103629;1288;60497;-31
2023/12/05 09:29:59;;;;;;;163.20;69.20;;;;;;;-0.98;96.33;99106.93;103628;1283;60595;-32
2023/12/05 09:32:25;;;;;;;125.50;57.10;;;;;;;-0.97;95.57;99104.55;103746;1282;60569;-30
2023/12/05 09:34:51;;;;;;;78.80;29.00;;;;;;;-0.87;96.04;99100.80;103719;1283;60562;-30
2023/12/05 09:37:17;;;;;;;;;;;;;;;-0.75;96.11;99096.71;103630;1282;60607;-31
2023/12/05 09:39:43;;;;;;;97.60;37.70;;;;;;;-0.63;96.13;99097.50;103652;1286;60574;-32
2023/12/05 09:42:13;;;;;;;63.70;26.80;;;;;;;-0.44;96.43;99095.66;103567;1288;60584;-32
2023/12/05 09:44:42;;;;;;;59.20;21.30;;;;;;;-0.24;95.65;99091.29;103666;1286;60440;-33
2023/12/05 09:47:07;;;;;;;89.90;28.20;;;;;;;-0.12;95.24;99092.09;103627;1288;60508;-30
2023/12/05 09:49:33;;;;;;;89.70;28.20;;;;;;;0.01;94.47;99088.29;103671;1287;60549;-32
2023/12/05 09:51:59;;;;;;;75.70;26.40;;;;;;;0.14;93.67;99079.54;103722;1287;60498;-32
2023/12/05 09:54:25;;;;;;;306.20;82.70;;;;;;;0.04;92.05;99077.64;103588;1287;60493;-33
2023/12/05 09:56:54;;;;;;;164.50;44.10;;;;;;;0.11;92.31;99066.41;103398;1288;60526;-32
2023/12/05 09:59:20;;;;;;;164.80;48.50;;;;;;;0.16;91.62;99065.63;103706;1288;60523;-32
2023/12/05 10:01:46;;;;;;;120.50;39.70;;;;;;;0.24;91.86;99065.52;103669;1287;60570;-32
2023/12/05 10:04:11;;;;;;;125.20;41.00;;;;;;;0.39;91.20;99060.09;103653;1282;60516;-33
2023/12/05 10:06:37;;;;;;;88.80;33.30;;;;;;;0.43;90.34;99059.66;103637;1285;60883;-32
2023/12/05 10:09:06;;;;;;;47.50;23.30;;;;;;;0.44;89.78;99056.97;103762;1283;60444;-32
2023/12/05 10:11:32;;;;;;;33.00;14.80;;;;;;;0.50;89.58;99051.28;103669;1282;71863;-31
2023/12/05 10:13:58;;;;;;;33.10;15.50;;;;;;;0.54;90.05;99047.75;103633;1287;60463;-31
2023/12/05 10:16:24;;;;;;;37.90;15.50;;;;;;;0.68;90.35;99045.91;103623;1288;60575;-31
2023/12/05 10:18:50;;;;;;;31.60;14.80;;;;;;;0.82;89.55;99048.34;103643;1283;60554;-30
2023/12/05 10:21:16;;;;;;;41.50;19.20;;;;;;;0.95;89.17;99044.12;103697;1288;60572;-32
2023/12/05 10:23:42;;;;;;;31.10;14.80;;;;;;;1.02;88.91;99036.77;103695;1288;60559;-32
2023/12/05 10:26:08;;;;;;;33.20;16.20;;;;;;;1.09;88.54;99035.22;103559;1288;60450;-31
2023/12/05 10:28:46;;;;;;;;;;;;;;;1.23;88.77;99033.35;103697;1282;60483;-32
2023/12/05 10:31:15;;;;;;;30.00;13.30;;;;;;;1.27;87.91;99035.45;103628;1288;60508;-31
2023/12/05 10:33:41;;;;;;;29.30;12.80;;;;;;;1.45;87.60;99037.33;103637;1283;60464;-31
2023/12/05 10:36:11;;;;;;;26.00;13.40;;;;;;;1.60;87.80;99038.27;103668;1282;60546;-31
2023/12/05 10:38:37;;;;;;;29.20;14.10;;;;;;;1.62;86.48;99035.77;103640;1282;69360;-30
2023/12/05 10:41:03;;;;;;;32.20;15.60;;;;;;;1.39;84.93;99039.10;103609;1287;60514;-31
2023/12/05 10:43:29;;;;;;;;;;;;;;;1.35;86.05;99037.88;103613;1282;60512;-31
2023/12/05 10:45:55;;;;;;;36.20;16.90;;;;;;;1.49;86.64;99040.58;103559;1282;60658;-30
2023/12/05 10:48:25;;;;;;;36.10;16.80;;;;;;;1.42;86.51;99040.73;103682;1283;60367;-31
2023/12/05 10:50:54;;;;;;;36.80;18.80;;;;;;;1.44;86.61;99041.27;103681;1288;73588;-32
2023/12/05 10:53:20;;;;;;;35.20;20.60;;;;;;;1.54;87.31;99040.11;103656;1286;68495;-32
2023/12/05 10:55:46;;;;;;;31.60;17.40;;;;;;;1.43;86.91;99038.90;103638;1282;72976;-32
2023/12/05 10:58:12;;;;;;;39.10;19.20;;;;;;;1.47;86.94;99040.23;103739;1287;60561;-31
2023/12/05 11:00:38;;;;;;;77.10;33.10;;;;;;;1.42;87.21;99041.63;103606;1288;60501;-30
2023/12/05 11:03:04;;;;;;;51.60;24.70;;;;;;;1.47;87.37;99041.48;103652;1282;60413;-31
2023/12/05 11:05:31;;;;;;;84.20;46.60;;;;;;;1.53;87.17;99038.81;103557;1282;60489;-32
2023/12/05 11:07:57;;;;;;;303.00;140.10;;;;;;;1.51;86.57;99041.41;103687;1284;60484;-31
2023/12/05 11:10:25;;;;;;;433.30;245.80;;;;;;;1.44;86.65;99039.29;103528;1287;60575;-30
2023/12/05 11:12:53;;;;;;;146.80;71.60;;;;;;;1.58;87.42;99038.54;103633;1282;60565;-33
2023/12/05 11:15:24;;;;;;;71.10;37.00;;;;;;;1.58;87.07;99034.41;103687;1283;62117;-31
2023/12/05 11:18:03;;;;;;;79.00;42.30;;;;;;;1.52;87.40;99033.96;103654;1282;60365;-32
2023/12/05 11:20:45;;;;;;;66.60;33.40;;;;;;;1.51;87.50;99034.61;103698;1287;74196;-30
2023/12/05 11:23:35;;;;;;;95.50;50.50;;;;;;;1.69;88.08;99027.04;103690;1288;68206;-31
2023/12/05 11:26:23;;;;;;;130.30;68.60;;;;;;;1.76;87.29;99025.56;103498;1283;72698;-32
2023/12/05 11:29:01;;;;;;;;;;;;;;;1.75;87.42;99027.27;103585;1288;60532;-31
2023/12/05 11:31:38;;;;;;;140.50;30.50;;;;;;;1.79;87.23;99023.86;103590;1282;60501;-32
2023/12/05 11:34:28;;;;;;;116.90;27.50;;;;;;;1.79;86.56;99019.30;103697;1282;60462;-34
2023/12/05 11:37:18;;;;;;;94.10;28.00;;;;;;;1.65;85.68;99020.38;103626;1287;74353;-31
2023/12/05 11:39:43;;;;;;;98.70;43.80;;;;;;;1.51;85.04;99020.16;103729;1283;68462;-32
2023/12/05 11:42:11;;;;;;;52.90;27.00;;;;;;;1.54;85.77;99017.74;103642;1286;60648;-32
2023/12/05 11:44:37;;;;;;;116.70;35.00;;;;;;;1.50;85.52;99017.00;103620;1287;60403;-33
2023/12/05 11:47:04;;;;;;;121.20;32.20;;;;;;;1.54;86.43;99011.89;103583;1282;60677;-29
2023/12/05 11:49:54;;;;;;;136.30;33.70;;;;;;;1.69;86.85;99010.20;103735;1283;60348;-32